createdAt,value
2022-07-26T00:00:19.623Z,3.30
2022-07-26T00:03:16.717Z,4.50
2022-07-26T00:05:56.875Z,9.00
2022-07-26T00:08:44.005Z,5.10
2022-07-26T00:11:56.736Z,4.80
2022-07-26T00:14:25.388Z,4.20
2022-07-26T00:16:52.675Z,3.70
2022-07-26T00:19:24.429Z,3.80
2022-07-26T00:22:36.507Z,3.20
2022-07-26T00:25:06.501Z,3.70
2022-07-26T00:27:57.522Z,3.20
2022-07-26T00:30:46.258Z,3.20
2022-07-26T00:33:52.689Z,2.90
2022-07-26T00:36:41.910Z,2.60
2022-07-26T00:39:14.718Z,3.80
2022-07-26T00:41:55.415Z,3.10
2022-07-26T00:44:25.111Z,3.50
2022-07-26T00:46:57.933Z,3.00
2022-07-26T00:49:33.673Z,3.00
2022-07-26T00:52:34.692Z,3.10
2022-07-26T00:55:09.907Z,3.00
2022-07-26T00:57:51.202Z,3.20
2022-07-26T01:00:33.958Z,3.10
2022-07-26T01:03:00.925Z,3.30
2022-07-26T01:06:11.314Z,3.30
2022-07-26T01:08:47.063Z,2.90
2022-07-26T01:11:16.388Z,3.50
2022-07-26T01:13:59.505Z,2.80
2022-07-26T01:16:59.725Z,3.30
2022-07-26T01:19:34.103Z,3.20
2022-07-26T01:22:16.196Z,3.00
2022-07-26T01:25:01.630Z,3.50
2022-07-26T01:28:08.852Z,3.60
2022-07-26T01:31:08.606Z,10.60
2022-07-26T01:34:15.926Z,4.20
2022-07-26T01:36:52.704Z,4.20
2022-07-26T01:39:23.429Z,3.70
2022-07-26T01:41:54.052Z,3.20
2022-07-26T01:46:24.106Z,3.50
2022-07-26T01:51:03.420Z,3.50
2022-07-26T01:54:01.414Z,3.00
2022-07-26T01:56:35.338Z,3.30
2022-07-26T01:59:09.565Z,3.10
2022-07-26T02:01:40.228Z,3.10
2022-07-26T02:04:33.823Z,2.90
2022-07-26T02:07:05.375Z,3.00
2022-07-26T02:09:40.586Z,3.40
2022-07-26T02:12:13.125Z,3.30
2022-07-26T02:14:50.296Z,3.10
2022-07-26T02:17:30.333Z,3.00
2022-07-26T02:19:59.846Z,3.40
2022-07-26T02:22:56.795Z,3.30
2022-07-26T02:25:31.196Z,3.30
2022-07-26T02:28:06.321Z,3.00
2022-07-26T02:30:33.333Z,3.30
2022-07-26T02:33:22.772Z,2.90
2022-07-26T02:35:52.335Z,3.70
2022-07-26T02:38:19.313Z,3.40
2022-07-26T02:40:51.397Z,3.30
2022-07-26T02:43:36.554Z,3.30
2022-07-26T02:46:25.957Z,3.40
2022-07-26T02:49:01.217Z,3.40
2022-07-26T02:51:28.101Z,3.40
2022-07-26T02:53:54.936Z,3.10
2022-07-26T02:56:29.573Z,3.80
2022-07-26T02:58:58.680Z,3.40
2022-07-26T03:01:25.796Z,3.30
2022-07-26T03:03:52.589Z,3.50
2022-07-26T03:06:24.027Z,3.30
2022-07-26T03:08:59.742Z,3.70
2022-07-26T03:11:26.493Z,3.20
2022-07-26T03:16:56.735Z,2.90
2022-07-26T03:19:35.375Z,3.20
2022-07-26T03:22:41.527Z,3.40
2022-07-26T03:25:25.658Z,3.20
2022-07-26T03:27:58.318Z,3.20
2022-07-26T03:31:01.309Z,3.40
2022-07-26T03:33:36.142Z,3.50
2022-07-26T03:36:06.607Z,3.00
2022-07-26T03:38:47.007Z,3.70
2022-07-26T03:41:16.401Z,3.20
2022-07-26T03:43:46.057Z,3.20
2022-07-26T03:46:15.937Z,3.50
2022-07-26T03:48:45.553Z,3.10
2022-07-26T03:51:17.186Z,3.10
2022-07-26T03:53:44.001Z,3.30
2022-07-26T03:56:31.021Z,3.10
2022-07-26T03:59:04.021Z,3.30
2022-07-26T04:01:31.199Z,3.50
2022-07-26T04:04:16.552Z,3.30
2022-07-26T04:07:03.243Z,3.80
2022-07-26T04:09:32.284Z,3.80
2022-07-26T04:12:00.792Z,3.00
2022-07-26T04:14:27.468Z,3.10
2022-07-26T04:16:54.117Z,3.10
2022-07-26T04:19:21.068Z,3.20
2022-07-26T04:21:47.881Z,3.50
2022-07-26T04:24:19.793Z,3.40
2022-07-26T04:26:55.343Z,3.70
2022-07-26T04:29:22.331Z,3.10
2022-07-26T04:31:51.716Z,2.80
2022-07-26T04:34:21.063Z,3.40
2022-07-26T04:36:47.872Z,3.30
2022-07-26T04:39:23.861Z,3.00
2022-07-26T04:41:50.480Z,3.20
2022-07-26T04:44:21.588Z,11.30
2022-07-26T04:46:48.557Z,3.90
2022-07-26T04:49:36.175Z,3.40
2022-07-26T04:52:11.630Z,3.70
2022-07-26T04:54:48.612Z,3.60
2022-07-26T04:57:15.567Z,3.70
2022-07-26T05:00:20.257Z,3.50
2022-07-26T05:03:21.648Z,3.70
2022-07-26T05:05:53.142Z,3.60
2022-07-26T05:08:32.212Z,3.60
2022-07-26T05:11:43.188Z,4.00
2022-07-26T05:17:27.291Z,4.50
2022-07-26T05:23:09.775Z,4.40
2022-07-26T05:25:48.398Z,4.70
2022-07-26T05:28:29.546Z,5.40
2022-07-26T05:31:41.379Z,5.50
2022-07-26T05:34:08.413Z,5.10
2022-07-26T05:36:40.607Z,5.20
2022-07-26T05:39:07.341Z,4.90
2022-07-26T05:41:36.473Z,4.90
2022-07-26T05:44:06.772Z,5.00
2022-07-26T05:46:34.021Z,6.10
2022-07-26T05:49:01.217Z,5.60
2022-07-26T05:54:46.861Z,5.20
2022-07-26T05:57:21.906Z,6.40
2022-07-26T06:00:02.494Z,6.20
2022-07-26T06:02:43.941Z,6.00
2022-07-26T06:05:15.399Z,6.00
2022-07-26T06:07:42.387Z,5.80
2022-07-26T06:10:26.963Z,6.10
2022-07-26T06:12:54.803Z,5.40
2022-07-26T06:15:39.742Z,6.10
2022-07-26T06:18:15.237Z,5.80
2022-07-26T06:20:44.722Z,6.50
2022-07-26T06:23:33.560Z,6.30
2022-07-26T06:26:05.038Z,6.30
2022-07-26T06:28:36.870Z,7.20
2022-07-26T06:31:05.850Z,6.90
2022-07-26T06:33:39.042Z,7.40
2022-07-26T06:36:06.219Z,7.50
2022-07-26T06:38:34.750Z,6.90
2022-07-26T06:41:02.129Z,7.50
2022-07-26T06:43:29.112Z,6.70
2022-07-26T06:45:56.087Z,7.30
2022-07-26T06:48:23.514Z,7.20
2022-07-26T06:50:50.632Z,7.00
2022-07-26T06:53:20.169Z,6.80
2022-07-26T06:55:56.762Z,7.40
2022-07-26T06:58:55.828Z,7.00
2022-07-26T07:01:57.987Z,6.30
2022-07-26T07:04:35.922Z,8.00
2022-07-26T07:07:09.956Z,6.90
2022-07-26T07:09:44.570Z,7.40
2022-07-26T07:13:00.562Z,6.00
2022-07-26T07:16:06.872Z,6.90
2022-07-26T07:19:14.009Z,6.30
2022-07-26T07:23:05.225Z,5.70
2022-07-26T07:31:49.153Z,4.90
2022-07-26T07:34:21.992Z,5.40
2022-07-26T07:36:51.831Z,5.00
2022-07-26T07:39:19.236Z,6.00
2022-07-26T07:41:50.536Z,4.30
2022-07-26T07:44:17.212Z,10.90
2022-07-26T07:46:43.982Z,5.40
2022-07-26T07:49:11.295Z,5.60
2022-07-26T07:51:38.469Z,7.50
2022-07-26T07:54:06.033Z,5.70
2022-07-26T07:56:34.119Z,7.10
2022-07-26T07:59:02.121Z,4.80
2022-07-26T08:01:39.668Z,5.80
2022-07-26T08:04:09.817Z,3.50
2022-07-26T08:06:36.917Z,3.50
2022-07-26T08:09:05.669Z,3.50
2022-07-26T08:11:34.379Z,3.40
2022-07-26T08:14:01.899Z,4.50
2022-07-26T08:16:28.707Z,3.60
2022-07-26T08:18:57.550Z,3.90
2022-07-26T08:23:57.326Z,3.50
2022-07-26T08:26:24.713Z,3.70
2022-07-26T08:28:58.315Z,6.40
2022-07-26T08:31:34.434Z,4.30
2022-07-26T08:34:01.284Z,3.60
2022-07-26T08:36:32.292Z,4.30
2022-07-26T08:39:00.618Z,5.30
2022-07-26T08:41:28.186Z,3.10
2022-07-26T08:43:55.140Z,3.20
2022-07-26T08:46:26.913Z,3.70
2022-07-26T08:48:55.918Z,3.10
2022-07-26T08:51:25.363Z,3.90
2022-07-26T08:54:14.009Z,4.00
2022-07-26T08:56:53.935Z,4.10
2022-07-26T08:59:22.668Z,4.00
2022-07-26T09:02:03.756Z,3.70
2022-07-26T09:04:45.907Z,4.00
2022-07-26T09:07:21.171Z,4.50
2022-07-26T09:10:08.650Z,4.90
2022-07-26T09:12:36.650Z,3.90
2022-07-26T09:15:05.999Z,4.70
2022-07-26T09:17:41.366Z,4.30
2022-07-26T09:20:14.516Z,4.20
2022-07-26T09:22:56.500Z,4.00
2022-07-26T09:25:27.949Z,4.40
2022-07-26T09:27:58.536Z,4.20
2022-07-26T09:30:33.040Z,4.20
2022-07-26T09:33:11.242Z,4.50
2022-07-26T09:35:51.378Z,3.90
2022-07-26T09:38:19.666Z,3.90
2022-07-26T09:40:50.720Z,4.10
2022-07-26T09:43:23.876Z,3.70
2022-07-26T09:46:05.500Z,4.00
2022-07-26T09:49:08.230Z,3.80
2022-07-26T09:51:47.941Z,3.60
2022-07-26T09:54:33.065Z,3.30
2022-07-26T09:57:08.165Z,3.80
2022-07-26T09:59:43.878Z,3.50
2022-07-26T10:02:14.050Z,3.30
2022-07-26T10:07:32.143Z,3.40
2022-07-26T10:10:21.587Z,3.50
2022-07-26T10:12:54.696Z,3.20
2022-07-26T10:15:46.741Z,3.60
2022-07-26T10:18:35.763Z,3.50
2022-07-26T10:21:20.981Z,3.70
2022-07-26T10:23:56.347Z,3.40
2022-07-26T10:26:32.175Z,3.20
2022-07-26T10:29:17.312Z,3.40
2022-07-26T10:31:46.230Z,3.40
2022-07-26T10:34:34.971Z,3.50
2022-07-26T10:37:10.390Z,3.50
2022-07-26T10:39:38.468Z,3.40
2022-07-26T10:42:10.709Z,3.50
2022-07-26T10:44:45.864Z,3.60
2022-07-26T10:47:17.708Z,3.50
2022-07-26T10:50:17.865Z,3.40
2022-07-26T10:53:00.942Z,5.20
2022-07-26T10:55:27.683Z,4.60
2022-07-26T10:57:54.471Z,3.60
2022-07-26T11:00:24.341Z,3.40
2022-07-26T11:03:05.089Z,3.70
2022-07-26T11:05:46.508Z,3.60
2022-07-26T11:08:31.407Z,3.60
2022-07-26T11:11:00.892Z,3.40
2022-07-26T11:13:32.555Z,3.80
2022-07-26T11:16:01.848Z,3.60
2022-07-26T11:18:36.458Z,4.40
2022-07-26T11:21:12.230Z,4.00
2022-07-26T11:23:43.635Z,4.80
2022-07-26T11:26:24.395Z,7.90
2022-07-26T11:29:40.627Z,4.00
2022-07-26T11:32:19.202Z,6.10
2022-07-26T11:35:04.084Z,3.80
2022-07-26T11:37:41.925Z,3.70
2022-07-26T11:40:13.600Z,3.70
2022-07-26T11:42:40.948Z,3.70
2022-07-26T11:45:11.551Z,3.50
2022-07-26T11:47:47.381Z,3.90
2022-07-26T11:50:22.266Z,3.00
2022-07-26T11:52:53.873Z,3.20
2022-07-26T11:55:33.331Z,3.30
2022-07-26T11:58:09.989Z,3.10
2022-07-26T12:00:39.177Z,3.10
2022-07-26T12:03:06.109Z,2.80
2022-07-26T12:05:32.924Z,3.40
2022-07-26T12:08:06.693Z,3.40
2022-07-26T12:10:56.839Z,3.20
2022-07-26T12:13:25.959Z,3.50
2022-07-26T12:15:52.931Z,3.10
2022-07-26T12:18:30.423Z,3.10
2022-07-26T12:21:13.927Z,3.30
2022-07-26T12:23:48.804Z,3.10
2022-07-26T12:26:30.188Z,3.30
2022-07-26T12:29:20.708Z,3.60
2022-07-26T12:32:07.735Z,3.30
2022-07-26T12:35:13.388Z,3.10
2022-07-26T12:37:46.303Z,2.90
2022-07-26T12:40:17.872Z,3.30
2022-07-26T12:43:01.309Z,3.40
2022-07-26T12:45:38.583Z,2.80
2022-07-26T12:48:10.718Z,3.30
2022-07-26T12:50:37.621Z,3.30
2022-07-26T12:53:08.631Z,3.30
2022-07-26T12:55:35.627Z,3.00
2022-07-26T12:58:02.767Z,3.20
2022-07-26T13:00:30.092Z,3.10
2022-07-26T13:03:07.297Z,3.20
2022-07-26T13:05:33.985Z,3.10
2022-07-26T13:08:00.501Z,3.40
2022-07-26T13:10:35.644Z,3.20
2022-07-26T13:13:03.995Z,3.10
2022-07-26T13:15:36.839Z,3.40
2022-07-26T13:18:09.529Z,3.10
2022-07-26T13:20:37.857Z,3.70
2022-07-26T13:23:11.407Z,3.30
2022-07-26T13:25:40.561Z,3.40
2022-07-26T13:28:08.638Z,3.10
2022-07-26T13:30:37.761Z,2.80
2022-07-26T13:33:11.421Z,3.30
2022-07-26T13:35:39.246Z,3.30
2022-07-26T13:38:08.989Z,3.30
2022-07-26T13:40:36.072Z,3.30
2022-07-26T13:43:04.522Z,2.90
2022-07-26T13:45:33.493Z,3.00
2022-07-26T13:48:00.436Z,3.30
2022-07-26T13:50:27.918Z,3.40
2022-07-26T13:52:56.088Z,3.30
2022-07-26T13:55:24.017Z,3.60
2022-07-26T13:57:57.069Z,3.40
2022-07-26T14:00:48.497Z,3.10
2022-07-26T14:03:18.980Z,3.10
2022-07-26T14:05:46.493Z,3.00
2022-07-26T14:08:13.314Z,3.50
2022-07-26T14:10:40.158Z,3.20
2022-07-26T14:13:08.230Z,3.10
2022-07-26T14:15:38.124Z,3.30
2022-07-26T14:18:07.341Z,3.10
2022-07-26T14:20:34.051Z,2.90
2022-07-26T14:23:01.889Z,3.30
2022-07-26T14:25:29.079Z,3.40
2022-07-26T14:28:02.152Z,3.50
2022-07-26T14:30:28.800Z,3.50
2022-07-26T14:35:50.703Z,3.50
2022-07-26T14:38:24.287Z,3.50
2022-07-26T14:41:07.682Z,3.30
2022-07-26T14:43:34.602Z,3.40
2022-07-26T14:46:03.667Z,3.70
2022-07-26T14:48:53.668Z,3.80
2022-07-26T14:51:28.925Z,4.00
2022-07-26T14:57:22.722Z,3.80
2022-07-26T15:00:06.136Z,3.10
2022-07-26T15:03:33.079Z,3.10
2022-07-26T15:05:59.950Z,3.30
2022-07-26T15:08:26.744Z,3.50
2022-07-26T15:10:53.796Z,3.30
2022-07-26T15:13:20.744Z,3.10
2022-07-26T15:15:47.462Z,3.70
2022-07-26T15:18:14.150Z,3.30
2022-07-26T15:20:42.832Z,4.00
2022-07-26T15:23:17.020Z,3.00
2022-07-26T15:25:44.073Z,3.70
2022-07-26T15:28:10.830Z,4.50
2022-07-26T15:30:37.570Z,3.20
2022-07-26T15:33:04.612Z,3.20
2022-07-26T15:35:32.123Z,3.10
2022-07-26T15:38:02.113Z,3.60
2022-07-26T15:44:20.318Z,3.40
2022-07-26T15:47:09.236Z,3.60
2022-07-26T15:49:40.838Z,3.40
2022-07-26T15:52:22.183Z,3.80
2022-07-26T15:54:58.365Z,3.60
2022-07-26T15:57:25.256Z,3.10
2022-07-26T16:00:03.777Z,4.00
2022-07-26T16:02:58.845Z,4.10
2022-07-26T16:06:30.543Z,3.40
2022-07-26T16:09:19.952Z,4.10
2022-07-26T16:13:16.390Z,6.50
2022-07-26T16:16:05.305Z,7.40
2022-07-26T16:19:04.681Z,6.80
2022-07-26T16:22:16.189Z,5.10
2022-07-26T16:28:21.027Z,6.70
2022-07-26T16:31:10.394Z,6.10
2022-07-26T16:34:28.386Z,7.10
2022-07-26T16:37:15.201Z,5.80
2022-07-26T16:40:11.556Z,6.70
2022-07-26T16:42:47.205Z,6.10
2022-07-26T16:45:30.361Z,6.20
2022-07-26T16:48:32.139Z,6.50
2022-07-26T16:51:26.742Z,5.70
2022-07-26T16:54:24.420Z,6.50
2022-07-26T17:00:17.882Z,6.30
2022-07-26T17:03:00.670Z,6.30
2022-07-26T17:12:17.093Z,7.50
2022-07-26T17:19:27.542Z,6.80
2022-07-26T17:30:45.930Z,8.40
2022-07-26T17:33:40.136Z,7.40
2022-07-26T17:40:34.529Z,7.20
2022-07-26T17:49:36.490Z,7.50
2022-07-26T17:56:01.580Z,7.10
2022-07-26T18:02:28.902Z,7.00
2022-07-26T18:09:11.052Z,6.80
2022-07-26T18:12:19.754Z,6.70
2022-07-26T18:15:52.999Z,7.80
2022-07-26T18:22:11.985Z,7.10
2022-07-26T18:28:56.394Z,7.30
2022-07-26T18:34:54.184Z,7.30
2022-07-26T18:40:16.342Z,7.20
2022-07-26T19:22:39.075Z,8.00
2022-07-26T19:37:34.873Z,10.20
2022-07-26T19:40:27.255Z,8.70
2022-07-26T19:47:22.239Z,8.50
2022-07-26T19:54:14.315Z,8.40
2022-07-26T19:56:59.471Z,8.60
2022-07-26T19:59:41.695Z,9.00
2022-07-26T20:02:22.703Z,9.50
2022-07-26T20:09:53.086Z,9.50
2022-07-26T20:13:57.713Z,13.00
2022-07-26T20:24:35.421Z,9.20
2022-07-26T20:27:29.756Z,8.20
2022-07-26T20:30:14.037Z,9.10
2022-07-26T20:32:47.486Z,10.10
2022-07-26T20:32:48.076Z,9.60
2022-07-26T20:50:59.899Z,12.60
2022-07-26T20:53:32.271Z,10.20
2022-07-26T21:03:35.622Z,10.00
2022-07-26T21:10:01.808Z,11.10
2022-07-26T21:30:38.138Z,12.10
2022-07-26T21:33:34.197Z,11.60
2022-07-26T21:36:15.740Z,13.00
2022-07-26T21:55:54.895Z,10.20
2022-07-26T21:59:26.169Z,13.50
2022-07-26T22:10:04.108Z,12.90
2022-07-26T22:11:07.704Z,11.60
2022-07-26T22:18:05.225Z,13.80
2022-07-26T22:21:01.864Z,15.00
2022-07-26T22:28:30.338Z,13.90
2022-07-26T22:35:35.689Z,12.70
2022-07-26T22:40:01.711Z,12.10
2022-07-26T22:46:29.626Z,10.00
2022-07-26T22:53:37.967Z,10.50
2022-07-26T22:56:17.191Z,11.40
2022-07-26T22:59:04.742Z,11.80
2022-07-26T23:01:31.844Z,12.40
2022-07-26T23:04:38.173Z,12.10
2022-07-26T23:11:05.526Z,12.50
2022-07-26T23:14:20.817Z,11.40
2022-07-26T23:18:03.790Z,12.20
2022-07-26T23:21:54.617Z,12.80
2022-07-26T23:24:37.734Z,11.90
2022-07-26T23:28:35.288Z,13.40
2022-07-26T23:31:59.492Z,13.60
2022-07-26T23:34:50.908Z,13.90
2022-07-26T23:41:17.283Z,14.20
2022-07-26T23:49:03.500Z,13.90
2022-07-26T23:55:19.642Z,13.60
2022-07-26T23:58:11.997Z,13.90
